Time;durP1;ratioP1;P1;durP2;ratioP2;P2;SDS_P1;SDS_P2;PMS_P1;PMS_P2;Temp;Humidity;BMP_temperature;BMP_pressure;BME280_temperature;BME280_humidity;BME280_pressure;Samples;Min_cycle;Max_cycle;Signal;HPM_P1;HPM_P2
2024/01/21 00:01:17;;;;;;;8.38;4.18;;;;;;;-147.20;100.00;63046.97;31668799;28;34578;-66
2024/01/21 00:16:17;;;;;;;10.43;5.13;;;;;;;-147.20;100.00;63046.97;31666947;28;20401;-66
2024/01/21 00:31:17;;;;;;;13.88;4.57;;;;;;;-147.20;100.00;63046.97;31664763;28;34569;-65
2024/01/21 00:46:18;;;;;;;11.25;4.55;;;;;;;-147.20;100.00;63046.97;31662796;28;35888;-65
2024/01/21 01:01:18;;;;;;;8.48;3.58;;;;;;;-147.20;100.00;63046.97;31662225;28;34453;-64
2024/01/21 01:16:19;;;;;;;7.05;3.90;;;;;;;-147.20;100.00;63046.97;31663275;28;20037;-63
2024/01/21 01:31:20;;;;;;;7.13;3.90;;;;;;;-147.20;100.00;63046.97;31660897;28;35598;-68
2024/01/21 01:46:21;;;;;;;10.35;4.05;;;;;;;-147.20;100.00;63046.97;31659019;28;20045;-65
2024/01/21 02:01:22;;;;;;;6.05;3.45;;;;;;;-147.20;100.00;63046.97;31662295;28;20047;-66
2024/01/21 02:16:22;;;;;;;11.85;4.72;;;;;;;-147.20;100.00;63046.97;31679243;28;20036;-65
2024/01/21 02:31:22;;;;;;;12.57;5.00;;;;;;;-147.20;100.00;63046.97;31676811;28;33618;-65
2024/01/21 02:46:23;;;;;;;12.73;5.65;;;;;;;-147.20;100.00;63046.97;31675213;28;34857;-68
2024/01/21 03:01:23;;;;;;;8.07;5.47;;;;;;;-147.20;100.00;63046.97;31674664;28;20029;-65
2024/01/21 03:16:24;;;;;;;11.95;5.88;;;;;;;-147.20;100.00;63046.97;31671988;28;34708;-65
2024/01/21 03:31:24;;;;;;;17.58;7.43;;;;;;;-147.20;100.00;63046.97;31671601;28;20040;-65
2024/01/21 03:46:24;;;;;;;18.20;7.72;;;;;;;-147.20;100.00;63046.97;31669913;28;20538;-61
2024/01/21 04:01:25;;;;;;;17.33;7.88;;;;;;;-147.20;100.00;63046.97;31669637;28;20033;-67
2024/01/21 04:16:25;;;;;;;16.13;6.35;;;;;;;-147.20;100.00;63046.97;31666305;28;34445;-63
2024/01/21 04:31:25;;;;;;;24.10;8.90;;;;;;;-147.20;100.00;63046.97;31663103;28;33727;-63
2024/01/21 04:46:26;;;;;;;17.67;9.52;;;;;;;-147.20;100.00;63046.97;31661740;28;36009;-64
2024/01/21 05:01:26;;;;;;;19.50;8.85;;;;;;;-147.20;100.00;63046.97;31662072;28;20040;-63
2024/01/21 05:16:27;;;;;;;13.85;7.80;;;;;;;-147.20;100.00;63046.97;31659912;28;20104;-63
2024/01/21 05:31:31;;;;;;;16.25;8.32;;;;;;;-147.20;100.00;63046.97;31659829;28;20274;-62
2024/01/21 05:46:32;;;;;;;;;;;;;;;-147.20;100.00;63046.97;31676075;28;20869;-64
2024/01/21 06:01:33;;;;;;;19.83;8.95;;;;;;;-147.20;100.00;63046.97;31679745;28;19920;-63
2024/01/21 06:16:33;;;;;;;15.35;9.10;;;;;;;-147.20;100.00;63046.97;31676090;28;34899;-64
2024/01/21 06:31:33;;;;;;;18.20;9.77;;;;;;;-147.20;100.00;63046.97;31675021;28;35840;-64
2024/01/21 06:46:34;;;;;;;19.95;10.88;;;;;;;-147.20;100.00;63046.97;31673183;28;20052;-65
2024/01/21 07:01:34;;;;;;;18.02;10.57;;;;;;;-147.20;100.00;63046.97;31672263;28;20429;-63
2024/01/21 07:16:35;;;;;;;19.95;10.45;;;;;;;-147.20;100.00;63046.97;31668849;28;34687;-67
2024/01/21 07:31:35;;;;;;;21.13;11.82;;;;;;;-147.20;100.00;63046.97;31666992;28;20033;-64
2024/01/21 07:46:35;;;;;;;26.98;14.18;;;;;;;-147.20;100.00;63046.97;31665430;28;20064;-66
2024/01/21 08:01:35;;;;;;;26.35;12.20;;;;;;;-147.20;100.00;63046.97;31665373;28;35908;-65
2024/01/21 08:16:36;;;;;;;27.58;13.05;;;;;;;-147.20;100.00;63046.97;31663017;28;34943;-63
2024/01/21 08:31:43;;;;;;;22.63;12.13;;;;;;;-147.20;100.00;63046.97;31664805;28;35560;-67
2024/01/21 08:46:44;;;;;;;22.40;9.95;;;;;;;-147.20;100.00;63046.97;31661934;28;20075;-65
2024/01/21 09:01:44;;;;;;;16.65;8.82;;;;;;;-147.20;100.00;63046.97;31660012;28;20126;-63
2024/01/21 09:16:44;;;;;;;19.25;10.57;;;;;;;-147.20;100.00;63046.97;31657492;28;34605;-68
2024/01/21 09:31:53;;;;;;;20.13;10.27;;;;;;;-147.20;100.00;63046.97;31655380;28;35538;-70
2024/01/21 09:46:56;;;;;;;17.83;9.38;;;;;;;-147.20;100.00;63046.97;31655889;28;20049;-68
2024/01/21 10:01:56;;;;;;;16.88;8.48;;;;;;;-147.20;100.00;63046.97;31655454;28;20032;-69
2024/01/21 10:16:58;;;;;;;15.33;9.03;;;;;;;-147.20;100.00;63046.97;31654389;28;35169;-71
2024/01/21 10:31:58;;;;;;;15.63;8.50;;;;;;;-147.20;100.00;63046.97;31671362;28;20029;-67
2024/01/21 10:47:01;;;;;;;16.85;8.73;;;;;;;-147.20;100.00;63046.97;31671626;28;35655;-69
2024/01/21 11:02:01;;;;;;;14.05;9.48;;;;;;;-147.20;100.00;63046.97;31671845;28;20458;-68
2024/01/21 11:17:06;;;;;;;18.85;9.15;;;;;;;-147.20;100.00;63046.97;31668757;28;20037;-63
2024/01/21 11:32:10;;;;;;;18.90;8.52;;;;;;;-147.20;100.00;63046.97;31667068;28;20029;-65
2024/01/21 11:47:10;;;;;;;14.40;8.35;;;;;;;-147.20;100.00;63046.97;31666911;28;20620;-67
2024/01/21 12:02:11;;;;;;;13.07;6.85;;;;;;;-147.20;100.00;63046.97;31664808;28;29858;-62
2024/01/21 12:17:11;;;;;;;14.18;6.88;;;;;;;-147.20;100.00;63046.97;31666998;28;20540;-65
2024/01/21 12:32:11;;;;;;;16.52;8.02;;;;;;;-147.20;100.00;63046.97;31663981;28;36714;-66
2024/01/21 12:47:12;;;;;;;22.48;10.00;;;;;;;-147.20;100.00;63046.97;31659087;28;34524;-62
2024/01/21 13:02:12;;;;;;;19.35;9.45;;;;;;;-147.20;100.00;63046.97;31658870;28;20060;-65
2024/01/21 13:17:12;;;;;;;18.30;9.38;;;;;;;-147.20;100.00;63046.97;31657020;28;34682;-67
2024/01/21 13:32:12;;;;;;;23.45;10.25;;;;;;;-147.20;100.00;63046.97;31657919;28;20033;-66
2024/01/21 13:47:13;;;;;;;26.17;12.05;;;;;;;-147.20;100.00;63046.97;31655142;28;22062;-65
2024/01/21 14:02:13;;;;;;;22.95;10.55;;;;;;;-147.20;100.00;63046.97;31666967;28;24770;-64
2024/01/21 14:17:13;;;;;;;19.77;8.45;;;;;;;-147.20;100.00;63046.97;31678339;28;20043;-64
2024/01/21 14:32:14;;;;;;;14.45;6.85;;;;;;;-147.20;100.00;63046.97;31677146;28;20039;-67
2024/01/21 14:47:14;;;;;;;18.33;7.53;;;;;;;-147.20;100.00;63046.97;31672529;28;35929;-67
2024/01/21 15:02:14;;;;;;;12.75;5.55;;;;;;;-147.20;100.00;63046.97;31671565;28;28249;-65
2024/01/21 15:17:14;;;;;;;15.23;6.70;;;;;;;-147.20;100.00;63046.97;31668332;28;34439;-66
2024/01/21 15:32:15;;;;;;;21.52;6.93;;;;;;;-147.20;100.00;63046.97;31667702;28;20112;-64
2024/01/21 15:47:15;;;;;;;17.63;6.38;;;;;;;-147.20;100.00;63046.97;31666050;28;20446;-63
2024/01/21 16:02:16;;;;;;;13.13;6.32;;;;;;;-147.20;100.00;63046.97;31665580;28;34416;-66
2024/01/21 16:17:16;;;;;;;14.75;5.53;;;;;;;-147.20;100.00;63046.97;31666121;28;20043;-67
2024/01/21 16:32:17;;;;;;;9.05;4.18;;;;;;;-147.20;100.00;63046.97;31665565;28;20039;-67
2024/01/21 16:47:17;;;;;;;17.70;6.80;;;;;;;-147.20;100.00;63046.97;31662150;28;20114;-67
2024/01/21 17:02:19;;;;;;;11.70;5.85;;;;;;;-147.20;100.00;63046.97;31661256;28;20391;-64
2024/01/21 17:17:20;;;;;;;16.42;7.10;;;;;;;-147.20;100.00;63046.97;31659289;28;20086;-65
2024/01/21 17:32:20;;;;;;;15.52;6.22;;;;;;;-147.20;100.00;63046.97;31661606;28;20047;-63
2024/01/21 17:47:21;;;;;;;14.98;6.72;;;;;;;-147.20;100.00;63046.97;31678559;28;33902;-66
2024/01/21 18:02:22;;;;;;;13.43;5.70;;;;;;;-147.20;100.00;63046.97;31677815;28;20586;-63
2024/01/21 18:17:22;;;;;;;9.85;4.20;;;;;;;-147.20;100.00;63046.97;31677692;28;20528;-63
2024/01/21 18:32:25;;;;;;;6.18;3.05;;;;;;;-147.20;100.00;63046.97;31675117;28;20040;-65
2024/01/21 18:47:26;;;;;;;9.43;4.72;;;;;;;-147.20;100.00;63046.97;31672750;28;20087;-66
2024/01/21 19:02:27;;;;;;;14.25;5.18;;;;;;;-147.20;100.00;63046.97;31672922;28;20140;-64
2024/01/21 19:17:27;;;;;;;20.67;8.00;;;;;;;-147.20;100.00;63046.97;31670779;28;20063;-66
2024/01/21 19:32:27;;;;;;;14.90;5.68;;;;;;;-147.20;100.00;63046.97;31668495;28;20038;-64
2024/01/21 19:47:27;;;;;;;16.50;7.78;;;;;;;-147.20;100.00;63046.97;31665637;28;34762;-63
2024/01/21 20:02:28;;;;;;;18.55;8.10;;;;;;;-147.20;100.00;63046.97;31663742;28;35622;-67
2024/01/21 20:17:28;;;;;;;16.02;6.63;;;;;;;-147.20;100.00;63046.97;31663797;28;20068;-68
2024/01/21 20:32:28;;;;;;;14.38;7.10;;;;;;;-147.20;100.00;63046.97;31662821;28;34485;-66
2024/01/21 20:47:29;;;;;;;21.23;8.98;;;;;;;-147.20;100.00;63046.97;31660276;28;35675;-66
2024/01/21 21:02:29;;;;;;;14.45;7.40;;;;;;;-147.20;100.00;63046.97;31660849;28;20028;-62
2024/01/21 21:17:29;;;;;;;21.23;9.52;;;;;;;-147.20;100.00;63046.97;31658523;28;20462;-62
2024/01/21 21:32:30;;;;;;;19.00;8.48;;;;;;;-147.20;100.00;63046.97;31659266;28;26695;-63
2024/01/21 21:47:30;;;;;;;13.20;6.78;;;;;;;-147.20;100.00;63046.97;31656975;28;34587;-67
2024/01/21 22:02:30;;;;;;;14.65;7.30;;;;;;;-147.20;100.00;63046.97;31656559;28;20381;-66
2024/01/21 22:17:31;;;;;;;14.95;7.60;;;;;;;-147.20;100.00;63046.97;31656558;28;20025;-67
2024/01/21 22:32:31;;;;;;;15.52;8.52;;;;;;;-147.20;100.00;63046.97;31675308;28;26474;-68
2024/01/21 22:47:32;;;;;;;16.40;7.43;;;;;;;-147.20;100.00;63046.97;31676815;28;20515;-69
2024/01/21 23:02:33;;;;;;;13.73;6.82;;;;;;;-147.20;100.00;63046.97;31675717;28;20039;-65
2024/01/21 23:17:33;;;;;;;11.50;4.85;;;;;;;-147.20;100.00;63046.97;31673244;28;36023;-68
2024/01/21 23:32:33;;;;;;;11.95;5.38;;;;;;;-147.20;100.00;63046.97;31671767;28;20033;-68
2024/01/21 23:47:34;;;;;;;8.57;5.45;;;;;;;-147.20;100.00;63046.97;31669217;28;36125;-64
